createdAt,value
2019-04-07T00:00:02.288Z,99.90
2019-04-07T00:02:33.074Z,99.90
2019-04-07T00:05:11.266Z,99.90
2019-04-07T00:07:36.048Z,99.90
2019-04-07T00:10:09.933Z,99.90
2019-04-07T00:12:40.369Z,99.90
2019-04-07T00:15:11.329Z,99.90
2019-04-07T00:17:42.005Z,99.90
2019-04-07T00:20:12.852Z,99.90
2019-04-07T00:22:43.294Z,99.90
2019-04-07T00:25:13.873Z,99.90
2019-04-07T00:27:45.347Z,99.90
2019-04-07T00:30:15.967Z,99.90
2019-04-07T00:32:46.724Z,99.90
2019-04-07T00:35:26.504Z,99.90
2019-04-07T00:37:49.525Z,99.90
2019-04-07T00:40:20.030Z,99.90
2019-04-07T00:42:50.722Z,99.90
2019-04-07T00:45:21.553Z,99.90
2019-04-07T00:47:52.563Z,99.90
2019-04-07T00:50:23.081Z,99.90
2019-04-07T00:52:53.554Z,99.90
2019-04-07T00:55:24.268Z,99.90
2019-04-07T00:57:54.838Z,99.90
2019-04-07T01:00:28.083Z,99.90
2019-04-07T01:02:58.629Z,99.90
2019-04-07T01:05:36.660Z,99.90
2019-04-07T01:08:01.762Z,99.90
2019-04-07T01:10:32.716Z,99.90
2019-04-07T01:13:04.468Z,99.90
2019-04-07T01:15:35.227Z,99.90
2019-04-07T01:18:06.170Z,99.90
2019-04-07T01:20:36.665Z,99.90
2019-04-07T01:23:07.098Z,99.90
2019-04-07T01:25:37.905Z,99.90
2019-04-07T01:28:08.390Z,99.90
2019-04-07T01:30:38.836Z,99.90
2019-04-07T01:33:09.568Z,99.90
2019-04-07T01:35:47.944Z,99.90
2019-04-07T01:38:12.822Z,99.90
2019-04-07T01:40:48.628Z,99.90
2019-04-07T01:43:29.325Z,99.90
2019-04-07T01:46:11.058Z,99.90
2019-04-07T01:48:54.382Z,99.90
2019-04-07T01:51:46.478Z,99.90
2019-04-07T01:54:35.213Z,99.90
2019-04-07T01:57:26.023Z,99.90
2019-04-07T02:00:28.358Z,99.90
2019-04-07T02:03:18.772Z,99.90
2019-04-07T02:06:06.005Z,99.90
2019-04-07T02:09:02.952Z,99.90
2019-04-07T02:11:52.995Z,99.90
2019-04-07T02:14:41.965Z,99.90
2019-04-07T02:17:33.169Z,99.90
2019-04-07T02:20:19.015Z,99.90
2019-04-07T02:23:00.869Z,99.90
2019-04-07T02:25:37.764Z,99.90
2019-04-07T02:28:23.401Z,99.90
2019-04-07T02:31:19.189Z,99.90
2019-04-07T02:34:01.899Z,99.90
2019-04-07T02:36:50.116Z,99.90
2019-04-07T02:39:29.059Z,99.90
2019-04-07T02:42:25.186Z,99.90
2019-04-07T02:45:03.695Z,99.90
2019-04-07T02:47:46.722Z,99.90
2019-04-07T02:50:37.433Z,99.90
2019-04-07T02:53:19.505Z,99.90
2019-04-07T02:55:59.239Z,99.90
2019-04-07T02:58:40.786Z,99.90
2019-04-07T03:01:22.949Z,99.90
2019-04-07T03:04:12.440Z,99.90
2019-04-07T03:07:02.581Z,99.90
2019-04-07T03:09:45.456Z,99.90
2019-04-07T03:12:44.365Z,99.90
2019-04-07T03:15:26.943Z,99.90
2019-04-07T03:18:16.320Z,99.90
2019-04-07T03:21:05.971Z,99.90
2019-04-07T03:23:53.290Z,99.90
2019-04-07T03:26:42.533Z,99.90
2019-04-07T03:29:26.922Z,99.90
2019-04-07T03:32:12.371Z,99.90
2019-04-07T03:35:06.445Z,99.90
2019-04-07T03:38:05.510Z,99.90
2019-04-07T03:40:55.152Z,99.90
2019-04-07T03:43:34.619Z,99.90
2019-04-07T03:46:14.137Z,99.90
2019-04-07T03:49:02.867Z,99.90
2019-04-07T03:51:49.729Z,99.90
2019-04-07T03:54:40.584Z,99.90
2019-04-07T03:57:31.067Z,99.90
2019-04-07T04:00:30.470Z,99.90
2019-04-07T04:03:09.176Z,99.90
2019-04-07T04:06:01.278Z,99.90
2019-04-07T04:08:50.997Z,99.90
2019-04-07T04:11:43.714Z,99.90
2019-04-07T04:14:22.056Z,99.90
2019-04-07T04:16:54.244Z,99.90
2019-04-07T04:19:27.130Z,99.90
2019-04-07T04:21:58.899Z,99.90
2019-04-07T04:24:30.300Z,99.90
2019-04-07T04:27:01.389Z,99.90
2019-04-07T04:29:33.186Z,99.90
2019-04-07T04:32:03.973Z,99.90
2019-04-07T04:34:34.684Z,99.90
2019-04-07T04:37:05.322Z,99.90
2019-04-07T04:39:36.065Z,99.90
2019-04-07T04:42:07.074Z,99.90
2019-04-07T04:44:37.992Z,99.90
2019-04-07T04:47:08.595Z,99.90
2019-04-07T04:49:39.045Z,99.90
2019-04-07T04:52:09.575Z,99.90
2019-04-07T04:54:40.817Z,99.90
2019-04-07T04:57:11.406Z,99.90
2019-04-07T04:59:42.240Z,99.90
2019-04-07T05:02:13.149Z,99.90
2019-04-07T05:04:43.882Z,99.90
2019-04-07T05:07:15.698Z,99.90
2019-04-07T05:09:51.133Z,99.90
2019-04-07T05:12:18.278Z,99.90
2019-04-07T05:14:49.082Z,99.90
2019-04-07T05:17:19.688Z,99.90
2019-04-07T05:19:50.118Z,99.90
2019-04-07T05:22:20.571Z,99.90
2019-04-07T05:24:51.117Z,99.90
2019-04-07T05:27:21.876Z,99.90
2019-04-07T05:29:52.397Z,99.90
2019-04-07T05:32:23.296Z,99.90
2019-04-07T05:34:54.403Z,99.90
2019-04-07T05:37:26.851Z,99.90
2019-04-07T05:39:57.971Z,99.90
2019-04-07T05:42:28.877Z,99.90
2019-04-07T05:44:59.642Z,99.90
2019-04-07T05:47:31.377Z,99.90
2019-04-07T05:50:04.035Z,99.90
2019-04-07T05:52:39.246Z,99.90
2019-04-07T05:55:07.826Z,99.90
2019-04-07T05:57:38.770Z,99.90
2019-04-07T06:00:13.558Z,99.90
2019-04-07T06:02:42.973Z,99.90
2019-04-07T06:05:15.999Z,99.90
2019-04-07T06:07:45.927Z,99.90
2019-04-07T06:10:16.672Z,99.90
2019-04-07T06:12:48.308Z,99.90
2019-04-07T06:15:22.141Z,99.90
2019-04-07T06:17:56.175Z,99.90
2019-04-07T06:20:25.146Z,99.90
2019-04-07T06:22:56.383Z,99.90
2019-04-07T06:25:27.324Z,99.90
2019-04-07T06:27:57.840Z,99.90
2019-04-07T06:30:31.862Z,99.90
2019-04-07T06:33:00.715Z,99.90
2019-04-07T06:35:31.455Z,99.90
2019-04-07T06:38:05.438Z,99.90
2019-04-07T06:40:34.207Z,99.90
2019-04-07T06:43:06.331Z,99.90
2019-04-07T06:45:45.293Z,99.90
2019-04-07T06:48:16.466Z,99.90
2019-04-07T06:50:58.316Z,99.90
2019-04-07T06:53:46.750Z,99.90
2019-04-07T06:56:40.142Z,99.90
2019-04-07T06:59:17.712Z,99.90
2019-04-07T07:02:14.125Z,99.90
2019-04-07T07:05:07.006Z,99.90
2019-04-07T07:07:47.779Z,99.90
2019-04-07T07:10:41.862Z,99.90
2019-04-07T07:13:34.797Z,99.90
2019-04-07T07:16:28.513Z,99.90
2019-04-07T07:19:24.423Z,94.80
2019-04-07T07:22:14.810Z,92.10
2019-04-07T07:24:46.630Z,92.40
2019-04-07T07:27:16.404Z,90.30
2019-04-07T07:29:47.687Z,92.30
2019-04-07T07:32:19.278Z,85.10
2019-04-07T07:34:50.762Z,80.80
2019-04-07T07:37:24.963Z,79.80
2019-04-07T07:39:55.383Z,83.70
2019-04-07T07:42:26.749Z,77.50
2019-04-07T07:44:57.315Z,75.40
2019-04-07T07:47:27.809Z,74.90
2019-04-07T07:49:58.665Z,69.80
2019-04-07T07:52:29.790Z,65.10
2019-04-07T07:55:01.783Z,68.00
2019-04-07T07:57:32.682Z,66.50
2019-04-07T08:00:06.167Z,63.20
2019-04-07T08:02:36.466Z,59.70
2019-04-07T08:05:07.274Z,60.20
2019-04-07T08:07:37.950Z,59.50
2019-04-07T08:10:08.603Z,57.10
2019-04-07T08:12:41.137Z,60.10
2019-04-07T08:15:11.745Z,58.70
2019-04-07T08:17:42.173Z,56.60
2019-04-07T08:20:15.310Z,56.60
2019-04-07T08:22:46.109Z,55.10
2019-04-07T08:25:20.368Z,55.00
2019-04-07T08:27:49.844Z,53.60
2019-04-07T08:30:20.423Z,51.40
2019-04-07T08:32:51.101Z,54.00
2019-04-07T08:35:22.129Z,50.40
2019-04-07T08:37:53.443Z,48.90
2019-04-07T08:40:24.233Z,50.40
2019-04-07T08:42:56.254Z,49.80
2019-04-07T08:45:31.001Z,50.50
2019-04-07T08:47:59.289Z,53.50
2019-04-07T08:50:29.998Z,54.90
2019-04-07T08:53:00.401Z,54.70
2019-04-07T08:55:30.964Z,54.80
2019-04-07T08:58:03.515Z,54.00
2019-04-07T09:00:36.249Z,55.40
2019-04-07T09:03:11.393Z,57.20
2019-04-07T09:06:04.618Z,57.60
2019-04-07T09:08:37.932Z,56.70
2019-04-07T09:11:11.148Z,54.00
2019-04-07T09:13:44.128Z,53.00
2019-04-07T09:16:33.692Z,52.80
2019-04-07T09:19:35.784Z,50.90
2019-04-07T09:22:25.731Z,48.40
2019-04-07T09:25:09.240Z,48.60
2019-04-07T09:28:01.026Z,47.60
2019-04-07T09:30:39.093Z,46.20
2019-04-07T09:33:43.269Z,46.40
2019-04-07T09:36:28.825Z,44.20
2019-04-07T09:39:07.891Z,42.40
2019-04-07T09:42:04.177Z,39.10
2019-04-07T09:45:03.333Z,38.60
2019-04-07T09:47:51.834Z,37.70
2019-04-07T09:50:32.383Z,36.60
2019-04-07T09:53:21.733Z,35.40
2019-04-07T09:56:29.912Z,34.50
2019-04-07T09:59:21.072Z,34.00
2019-04-07T10:02:00.291Z,31.30
2019-04-07T10:04:42.250Z,31.30
2019-04-07T10:07:33.419Z,32.60
2019-04-07T10:10:41.647Z,30.40
2019-04-07T10:13:19.894Z,30.50
2019-04-07T10:16:02.342Z,31.80
2019-04-07T10:18:50.950Z,32.50
2019-04-07T10:21:33.373Z,34.00
2019-04-07T10:24:15.198Z,31.50
2019-04-07T10:27:01.400Z,30.70
2019-04-07T10:29:42.742Z,30.30
2019-04-07T10:32:25.805Z,30.20
2019-04-07T10:35:03.402Z,30.60
2019-04-07T10:38:00.817Z,28.50
2019-04-07T10:40:40.036Z,29.10
2019-04-07T10:43:23.992Z,28.70
2019-04-07T10:46:04.178Z,31.50
2019-04-07T10:48:45.656Z,29.40
2019-04-07T10:51:51.279Z,29.00
2019-04-07T10:54:45.884Z,28.90
2019-04-07T10:57:24.730Z,28.40
2019-04-07T11:00:07.453Z,26.90
2019-04-07T11:03:00.907Z,28.60
2019-04-07T11:05:54.940Z,28.80
2019-04-07T11:08:43.478Z,30.00
2019-04-07T11:11:27.922Z,29.10
2019-04-07T11:14:23.818Z,28.40
2019-04-07T11:17:29.914Z,27.80
2019-04-07T11:20:11.620Z,26.30
2019-04-07T11:22:57.978Z,26.80
2019-04-07T11:26:12.371Z,27.80
2019-04-07T11:28:50.617Z,27.50
2019-04-07T11:31:36.195Z,26.90
2019-04-07T11:34:25.305Z,27.10
2019-04-07T11:37:10.789Z,26.00
2019-04-07T11:39:53.452Z,27.90
2019-04-07T11:42:41.907Z,27.80
2019-04-07T11:45:19.447Z,26.60
2019-04-07T11:48:27.513Z,26.40
2019-04-07T11:51:26.076Z,27.80
2019-04-07T11:54:03.153Z,27.30
2019-04-07T11:56:49.421Z,28.80
2019-04-07T11:59:31.720Z,29.10
2019-04-07T12:02:23.233Z,28.10
2019-04-07T12:05:06.537Z,28.90
2019-04-07T12:07:58.201Z,28.90
2019-04-07T12:10:53.522Z,29.00
2019-04-07T12:13:24.116Z,27.90
2019-04-07T12:16:20.800Z,27.20
2019-04-07T12:19:11.304Z,26.60
2019-04-07T12:21:58.195Z,28.60
2019-04-07T12:24:36.162Z,30.90
2019-04-07T12:27:44.641Z,31.50
2019-04-07T12:30:31.598Z,29.60
2019-04-07T12:33:12.234Z,29.40
2019-04-07T12:36:01.983Z,30.80
2019-04-07T12:38:46.215Z,30.80
2019-04-07T12:41:31.813Z,31.40
2019-04-07T12:44:30.304Z,33.50
2019-04-07T12:47:12.392Z,33.10
2019-04-07T12:49:53.186Z,33.00
2019-04-07T12:52:32.237Z,32.00
2019-04-07T12:55:30.546Z,33.20
2019-04-07T12:58:19.191Z,34.20
2019-04-07T13:01:15.316Z,34.30
2019-04-07T13:04:01.622Z,35.20
2019-04-07T13:06:45.313Z,35.70
2019-04-07T13:09:31.503Z,34.80
2019-04-07T13:12:22.938Z,34.60
2019-04-07T13:15:14.125Z,34.50
2019-04-07T13:17:53.004Z,34.30
2019-04-07T13:20:31.114Z,34.80
2019-04-07T13:23:13.517Z,35.30
2019-04-07T13:26:02.193Z,36.30
2019-04-07T13:28:39.049Z,36.90
2019-04-07T13:31:34.736Z,38.00
2019-04-07T13:34:31.172Z,36.50
2019-04-07T13:37:25.400Z,35.20
2019-04-07T13:40:02.087Z,33.60
2019-04-07T13:42:42.923Z,34.10
2019-04-07T13:45:46.146Z,35.90
2019-04-07T13:48:35.572Z,35.00
2019-04-07T13:51:25.170Z,34.00
2019-04-07T13:54:13.651Z,36.40
2019-04-07T13:57:09.087Z,35.20
2019-04-07T13:59:45.501Z,35.70
2019-04-07T14:02:30.183Z,36.40
2019-04-07T14:05:08.966Z,36.70
2019-04-07T14:08:05.963Z,37.00
2019-04-07T14:10:55.353Z,35.80
2019-04-07T14:13:46.895Z,35.00
2019-04-07T14:16:40.107Z,35.50
2019-04-07T14:19:28.839Z,36.90
2019-04-07T14:22:25.578Z,36.10
2019-04-07T14:25:04.755Z,36.10
2019-04-07T14:27:43.206Z,36.20
2019-04-07T14:30:32.384Z,37.40
2019-04-07T14:33:16.600Z,35.70
2019-04-07T14:36:00.824Z,35.40
2019-04-07T14:38:42.019Z,35.60
2019-04-07T14:41:31.562Z,34.30
2019-04-07T14:44:09.575Z,35.50
2019-04-07T14:46:58.146Z,35.60
2019-04-07T14:49:51.898Z,36.40
2019-04-07T14:52:32.915Z,36.20
2019-04-07T14:55:23.771Z,36.20
2019-04-07T14:58:03.350Z,35.30
2019-04-07T15:00:54.723Z,36.80
2019-04-07T15:03:25.227Z,37.30
2019-04-07T15:05:57.387Z,37.40
2019-04-07T15:08:46.236Z,37.10
2019-04-07T15:11:36.890Z,35.90
2019-04-07T15:14:08.216Z,36.50
2019-04-07T15:16:39.318Z,36.60
2019-04-07T15:19:11.613Z,36.90
2019-04-07T15:21:43.320Z,36.10
2019-04-07T15:24:14.598Z,35.70
2019-04-07T15:26:49.503Z,36.80
2019-04-07T15:29:17.209Z,36.20
2019-04-07T15:31:50.805Z,35.70
2019-04-07T15:34:19.922Z,35.90
2019-04-07T15:36:51.083Z,36.60
2019-04-07T15:39:22.621Z,35.10
2019-04-07T15:41:53.141Z,35.60
2019-04-07T15:44:23.557Z,36.40
2019-04-07T15:46:54.573Z,36.60
2019-04-07T15:49:27.401Z,36.30
2019-04-07T15:51:57.286Z,36.30
2019-04-07T15:54:28.552Z,36.50
2019-04-07T15:57:00.019Z,35.80
2019-04-07T15:59:31.369Z,36.10
2019-04-07T16:02:02.397Z,36.00
2019-04-07T16:04:33.118Z,35.90
2019-04-07T16:07:04.601Z,36.40
2019-04-07T16:09:44.295Z,35.20
2019-04-07T16:12:08.010Z,35.50
2019-04-07T16:14:38.580Z,35.50
2019-04-07T16:17:11.239Z,35.00
2019-04-07T16:19:45.032Z,34.50
2019-04-07T16:22:15.268Z,33.80
2019-04-07T16:24:46.332Z,34.00
2019-04-07T16:27:17.270Z,34.20
2019-04-07T16:29:48.795Z,34.10
2019-04-07T16:32:19.615Z,34.30
2019-04-07T16:34:50.325Z,34.50
2019-04-07T16:37:20.712Z,34.50
2019-04-07T16:39:52.504Z,34.50
2019-04-07T16:42:23.046Z,34.10
2019-04-07T16:44:54.845Z,34.60
2019-04-07T16:47:29.239Z,34.30
2019-04-07T16:49:57.675Z,34.80
2019-04-07T16:52:31.126Z,35.10
2019-04-07T16:55:00.399Z,34.20
2019-04-07T16:57:32.857Z,34.50
2019-04-07T17:00:03.846Z,34.40
2019-04-07T17:02:34.902Z,35.30
2019-04-07T17:05:06.534Z,35.90
2019-04-07T17:07:37.204Z,35.60
2019-04-07T17:10:08.017Z,35.70
2019-04-07T17:12:40.583Z,35.80
2019-04-07T17:15:12.258Z,36.20
2019-04-07T17:17:43.531Z,36.60
2019-04-07T17:20:14.914Z,36.50
2019-04-07T17:22:47.721Z,36.80
2019-04-07T17:25:17.988Z,36.90
2019-04-07T17:27:50.894Z,37.90
2019-04-07T17:30:25.675Z,38.90
2019-04-07T17:32:55.379Z,38.60
2019-04-07T17:35:26.929Z,39.00
2019-04-07T17:38:02.629Z,40.90
2019-04-07T17:40:34.298Z,40.70
2019-04-07T17:43:28.285Z,42.00
2019-04-07T17:46:02.513Z,42.80
2019-04-07T17:48:52.084Z,44.20
2019-04-07T17:51:30.717Z,45.30
2019-04-07T17:54:17.368Z,45.90
2019-04-07T17:56:52.682Z,47.00
2019-04-07T17:59:44.803Z,46.90
2019-04-07T18:02:33.877Z,47.40
2019-04-07T18:05:22.059Z,49.30
2019-04-07T18:08:05.861Z,50.30
2019-04-07T18:10:57.875Z,50.40
2019-04-07T18:13:49.346Z,51.60
2019-04-07T18:16:28.731Z,53.00
2019-04-07T18:19:15.283Z,53.00
2019-04-07T18:22:04.868Z,53.70
2019-04-07T18:24:53.204Z,54.50
2019-04-07T18:27:38.278Z,55.50
2019-04-07T18:30:19.422Z,55.30
2019-04-07T18:32:58.680Z,56.40
2019-04-07T18:35:47.049Z,56.80
2019-04-07T18:38:26.010Z,57.30
2019-04-07T18:41:16.566Z,58.90
2019-04-07T18:44:21.485Z,58.70
2019-04-07T18:47:08.913Z,59.60
2019-04-07T18:50:07.057Z,60.30
2019-04-07T18:52:54.323Z,62.50
2019-04-07T18:55:38.203Z,63.80
2019-04-07T18:58:34.321Z,66.40
2019-04-07T19:01:17.021Z,68.20
2019-04-07T19:03:53.708Z,70.10
2019-04-07T19:06:48.420Z,73.10
2019-04-07T19:09:28.293Z,76.00
2019-04-07T19:12:28.081Z,79.50
2019-04-07T19:15:09.192Z,82.10
2019-04-07T19:18:01.877Z,88.20
2019-04-07T19:20:52.021Z,92.20
2019-04-07T19:23:30.300Z,93.30
2019-04-07T19:26:21.207Z,96.60
2019-04-07T19:29:04.269Z,98.90
2019-04-07T19:31:50.460Z,98.20
2019-04-07T19:34:39.616Z,95.70
2019-04-07T19:37:28.308Z,95.60
2019-04-07T19:40:06.067Z,93.20
2019-04-07T19:43:03.906Z,92.40
2019-04-07T19:45:55.328Z,91.40
2019-04-07T19:48:44.931Z,89.60
2019-04-07T19:51:35.516Z,83.90
2019-04-07T19:54:17.642Z,82.40
2019-04-07T19:57:05.083Z,82.00
2019-04-07T19:59:48.588Z,80.50
2019-04-07T20:02:30.600Z,81.50
2019-04-07T20:05:10.897Z,82.20
2019-04-07T20:07:53.605Z,82.90
2019-04-07T20:10:42.650Z,83.00
2019-04-07T20:13:29.314Z,83.60
2019-04-07T20:16:19.810Z,85.60
2019-04-07T20:19:06.587Z,85.30
2019-04-07T20:21:55.051Z,85.40
2019-04-07T20:24:38.333Z,87.60
2019-04-07T20:27:24.867Z,86.10
2019-04-07T20:30:00.523Z,87.10
2019-04-07T20:32:35.236Z,90.30
2019-04-07T20:35:24.716Z,90.60
2019-04-07T20:38:14.829Z,90.90
2019-04-07T20:41:23.937Z,92.90
2019-04-07T20:44:08.211Z,94.60
2019-04-07T20:47:00.418Z,96.70
2019-04-07T20:49:51.656Z,97.70
2019-04-07T20:52:38.968Z,99.60
2019-04-07T20:55:28.774Z,99.90
2019-04-07T20:58:23.972Z,99.90
2019-04-07T21:01:22.396Z,99.10
2019-04-07T21:04:02.319Z,99.60
2019-04-07T21:06:51.094Z,99.90
2019-04-07T21:09:48.107Z,99.90
2019-04-07T21:12:45.455Z,99.90
2019-04-07T21:15:30.982Z,99.90
2019-04-07T21:18:31.482Z,99.90
2019-04-07T21:21:12.172Z,99.90
2019-04-07T21:23:59.803Z,99.90
2019-04-07T21:26:42.595Z,99.90
2019-04-07T21:29:31.039Z,99.90
2019-04-07T21:32:19.732Z,99.90
2019-04-07T21:35:15.432Z,99.90
2019-04-07T21:37:56.186Z,99.90
2019-04-07T21:40:44.940Z,99.90
2019-04-07T21:43:32.024Z,99.90
2019-04-07T21:46:22.411Z,99.90
2019-04-07T21:49:05.584Z,99.90
2019-04-07T21:51:46.430Z,99.90
2019-04-07T21:54:28.222Z,99.90
2019-04-07T21:57:11.111Z,99.90
2019-04-07T21:59:54.958Z,99.90
2019-04-07T22:02:40.637Z,99.90
2019-04-07T22:05:28.655Z,99.90
2019-04-07T22:08:08.013Z,99.90
2019-04-07T22:10:36.083Z,99.90
2019-04-07T22:13:07.138Z,99.90
2019-04-07T22:15:45.761Z,99.90
2019-04-07T22:18:11.214Z,99.90
2019-04-07T22:20:41.655Z,99.90
2019-04-07T22:23:12.580Z,99.90
2019-04-07T22:25:50.586Z,99.90
2019-04-07T22:28:21.126Z,99.90
2019-04-07T22:30:52.849Z,99.90
2019-04-07T22:33:26.072Z,99.90
2019-04-07T22:35:57.570Z,99.90
2019-04-07T22:38:28.175Z,99.90
2019-04-07T22:40:58.788Z,99.90
2019-04-07T22:43:29.286Z,99.90
2019-04-07T22:46:08.725Z,99.90
2019-04-07T22:48:32.968Z,99.90
2019-04-07T22:51:04.121Z,99.90
2019-04-07T22:53:37.086Z,99.90
2019-04-07T22:56:09.112Z,99.90
2019-04-07T22:58:40.215Z,99.90
2019-04-07T23:01:11.129Z,99.90
2019-04-07T23:03:42.703Z,99.90
2019-04-07T23:06:13.354Z,99.90
2019-04-07T23:08:44.199Z,99.90
2019-04-07T23:11:14.711Z,99.90
2019-04-07T23:13:45.250Z,99.90
2019-04-07T23:16:17.411Z,99.90
2019-04-07T23:18:48.828Z,99.90
2019-04-07T23:21:19.329Z,99.90
2019-04-07T23:23:50.356Z,99.90
2019-04-07T23:26:21.073Z,99.90
2019-04-07T23:28:51.529Z,99.90
2019-04-07T23:31:22.269Z,99.90
2019-04-07T23:33:52.789Z,99.90
2019-04-07T23:36:24.194Z,99.90
2019-04-07T23:38:55.914Z,99.90
2019-04-07T23:41:26.465Z,99.90
2019-04-07T23:43:57.034Z,99.90
2019-04-07T23:46:28.466Z,99.90
2019-04-07T23:48:59.089Z,99.90
2019-04-07T23:51:29.651Z,99.90
2019-04-07T23:54:14.413Z,99.90
2019-04-07T23:56:45.131Z,99.90
2019-04-07T23:59:16.416Z,99.90
